CYXJ

Fort St John Airport

Fort St.John, British Columbia, Canada
METAR CYXJ 251800Z 24013G19KT 60SM FEW110 BKN230 13/02 A3002 RMK AC1CI4 SLP186 DENSITY ALT 2500FT
Observed Flight Rules
Sep-25 @ 18:00 UTC (an hour ago) Visual Flight Rules
Wind Visibility Clouds
240° at 13 knots
 Gusting to 19 knots
60 miles
  • Few at 11,000' AGL
  • Broken at 23,000' AGL
Temperatures Readings
Current 13°C / 55°F
Dewpoint 2°C / 36°F
Humidity 47%
Altimeter 30.02" Hg
Pressure 1018.6 hPa
Elevation 695
METAR CYXJ 251800Z 24013G19KT 60SM FEW110 BKN230 13/02 A3002 RMK AC1CI4 SLP186 DENSITY ALT 2500FT
Observed Flight Rules
Sep-25 @ 18:00 UTC
(an hour ago)
VFR
Wind Visibility
240° at 13 knots
 Gusting to 19 knots
60 miles
Clouds
  • Few at 11,000' AGL
  • Broken at 23,000' AGL
Temperature Dewpoint
13°C / 55°F 2°C / 36°F
Humidity Altimeter Pressure
47% 30.02" Hg 1018.6 hPa